sensor_id;sensor_type;location;lat;lon;timestamp;P1;durP1;ratioP1;P2;durP2;ratioP2
9836;SDS011;4957;51.412;6.724;2024-02-04T00:00:14;6.87;;;5.37;;
9836;SDS011;4957;51.412;6.724;2024-02-04T00:02:40;7.33;;;4.93;;
9836;SDS011;4957;51.412;6.724;2024-02-04T00:05:06;11.93;;;4.93;;
9836;SDS011;4957;51.412;6.724;2024-02-04T00:07:32;9.10;;;4.10;;
9836;SDS011;4957;51.412;6.724;2024-02-04T00:09:57;5.67;;;3.93;;
9836;SDS011;4957;51.412;6.724;2024-02-04T00:12:23;5.73;;;3.53;;
9836;SDS011;4957;51.412;6.724;2024-02-04T00:14:49;4.77;;;3.27;;
9836;SDS011;4957;51.412;6.724;2024-02-04T00:17:15;4.77;;;3.20;;
9836;SDS011;4957;51.412;6.724;2024-02-04T00:19:41;3.00;;;2.53;;
9836;SDS011;4957;51.412;6.724;2024-02-04T00:22:07;3.70;;;1.97;;
9836;SDS011;4957;51.412;6.724;2024-02-04T00:24:32;3.10;;;2.70;;
9836;SDS011;4957;51.412;6.724;2024-02-04T00:26:58;2.50;;;2.30;;
9836;SDS011;4957;51.412;6.724;2024-02-04T00:29:24;3.37;;;2.63;;
9836;SDS011;4957;51.412;6.724;2024-02-04T00:31:49;3.60;;;2.40;;
9836;SDS011;4957;51.412;6.724;2024-02-04T00:34:15;3.20;;;2.80;;
9836;SDS011;4957;51.412;6.724;2024-02-04T00:36:41;3.63;;;2.70;;
9836;SDS011;4957;51.412;6.724;2024-02-04T00:39:07;4.73;;;3.30;;
9836;SDS011;4957;51.412;6.724;2024-02-04T00:41:33;4.97;;;3.43;;
9836;SDS011;4957;51.412;6.724;2024-02-04T00:43:59;6.33;;;3.50;;
9836;SDS011;4957;51.412;6.724;2024-02-04T00:46:25;5.30;;;3.97;;
9836;SDS011;4957;51.412;6.724;2024-02-04T00:48:51;8.60;;;5.33;;
9836;SDS011;4957;51.412;6.724;2024-02-04T00:51:16;6.17;;;4.53;;
9836;SDS011;4957;51.412;6.724;2024-02-04T00:53:45;5.10;;;4.27;;
9836;SDS011;4957;51.412;6.724;2024-02-04T00:56:11;4.03;;;3.63;;
9836;SDS011;4957;51.412;6.724;2024-02-04T00:58:37;4.83;;;3.80;;
9836;SDS011;4957;51.412;6.724;2024-02-04T01:01:04;4.73;;;3.93;;
9836;SDS011;4957;51.412;6.724;2024-02-04T01:03:30;4.90;;;3.73;;
9836;SDS011;4957;51.412;6.724;2024-02-04T01:05:56;4.60;;;3.90;;
9836;SDS011;4957;51.412;6.724;2024-02-04T01:08:22;6.87;;;3.90;;
9836;SDS011;4957;51.412;6.724;2024-02-04T01:10:48;5.07;;;4.20;;
9836;SDS011;4957;51.412;6.724;2024-02-04T01:13:16;5.03;;;3.77;;
9836;SDS011;4957;51.412;6.724;2024-02-04T01:15:42;5.60;;;4.50;;
9836;SDS011;4957;51.412;6.724;2024-02-04T01:18:07;6.27;;;4.27;;
9836;SDS011;4957;51.412;6.724;2024-02-04T01:20:33;5.50;;;4.70;;
9836;SDS011;4957;51.412;6.724;2024-02-04T01:22:59;5.77;;;4.30;;
9836;SDS011;4957;51.412;6.724;2024-02-04T01:25:25;5.93;;;4.53;;
9836;SDS011;4957;51.412;6.724;2024-02-04T01:27:50;11.07;;;5.37;;
9836;SDS011;4957;51.412;6.724;2024-02-04T01:30:16;5.20;;;4.10;;
9836;SDS011;4957;51.412;6.724;2024-02-04T01:32:41;6.63;;;5.07;;
9836;SDS011;4957;51.412;6.724;2024-02-04T01:35:07;7.37;;;4.73;;
9836;SDS011;4957;51.412;6.724;2024-02-04T01:37:33;6.17;;;5.13;;
9836;SDS011;4957;51.412;6.724;2024-02-04T01:39:59;6.00;;;4.73;;
9836;SDS011;4957;51.412;6.724;2024-02-04T01:42:24;5.77;;;5.10;;
9836;SDS011;4957;51.412;6.724;2024-02-04T01:44:50;5.10;;;4.40;;
9836;SDS011;4957;51.412;6.724;2024-02-04T01:47:16;6.70;;;4.53;;
9836;SDS011;4957;51.412;6.724;2024-02-04T01:49:42;4.90;;;4.40;;
9836;SDS011;4957;51.412;6.724;2024-02-04T01:52:09;5.27;;;4.50;;
9836;SDS011;4957;51.412;6.724;2024-02-04T01:54:37;5.50;;;4.60;;
9836;SDS011;4957;51.412;6.724;2024-02-04T01:57:04;5.80;;;5.03;;
9836;SDS011;4957;51.412;6.724;2024-02-04T01:59:31;7.23;;;4.50;;
9836;SDS011;4957;51.412;6.724;2024-02-04T02:01:58;5.33;;;4.47;;
9836;SDS011;4957;51.412;6.724;2024-02-04T02:04:25;5.83;;;5.10;;
9836;SDS011;4957;51.412;6.724;2024-02-04T02:06:52;5.77;;;4.93;;
9836;SDS011;4957;51.412;6.724;2024-02-04T02:09:19;5.30;;;4.27;;
9836;SDS011;4957;51.412;6.724;2024-02-04T02:11:46;5.10;;;4.60;;
9836;SDS011;4957;51.412;6.724;2024-02-04T02:14:18;5.43;;;4.77;;
9836;SDS011;4957;51.412;6.724;2024-02-04T02:16:48;6.57;;;4.43;;
9836;SDS011;4957;51.412;6.724;2024-02-04T02:22:28;5.10;;;4.60;;
9836;SDS011;4957;51.412;6.724;2024-02-04T02:24:57;5.23;;;4.40;;
9836;SDS011;4957;51.412;6.724;2024-02-04T02:27:24;6.50;;;5.17;;
9836;SDS011;4957;51.412;6.724;2024-02-04T02:29:50;5.27;;;4.77;;
9836;SDS011;4957;51.412;6.724;2024-02-04T02:32:16;7.10;;;5.33;;
9836;SDS011;4957;51.412;6.724;2024-02-04T02:34:43;6.97;;;5.13;;
9836;SDS011;4957;51.412;6.724;2024-02-04T02:37:36;8.60;;;5.90;;
9836;SDS011;4957;51.412;6.724;2024-02-04T02:42:38;8.40;;;5.47;;
9836;SDS011;4957;51.412;6.724;2024-02-04T02:45:08;7.40;;;6.33;;
9836;SDS011;4957;51.412;6.724;2024-02-04T02:47:36;7.73;;;6.13;;
9836;SDS011;4957;51.412;6.724;2024-02-04T02:50:04;9.70;;;6.40;;
9836;SDS011;4957;51.412;6.724;2024-02-04T02:52:31;8.73;;;6.37;;
9836;SDS011;4957;51.412;6.724;2024-02-04T02:54:56;8.07;;;6.73;;
9836;SDS011;4957;51.412;6.724;2024-02-04T02:57:22;9.83;;;6.93;;
9836;SDS011;4957;51.412;6.724;2024-02-04T02:59:48;10.23;;;6.97;;
9836;SDS011;4957;51.412;6.724;2024-02-04T03:02:13;8.93;;;7.03;;
9836;SDS011;4957;51.412;6.724;2024-02-04T03:04:39;10.43;;;7.70;;
9836;SDS011;4957;51.412;6.724;2024-02-04T03:07:05;10.80;;;7.37;;
9836;SDS011;4957;51.412;6.724;2024-02-04T03:09:32;10.13;;;7.93;;
9836;SDS011;4957;51.412;6.724;2024-02-04T03:11:58;11.40;;;8.27;;
9836;SDS011;4957;51.412;6.724;2024-02-04T03:14:24;10.83;;;7.77;;
9836;SDS011;4957;51.412;6.724;2024-02-04T03:16:49;11.50;;;7.97;;
9836;SDS011;4957;51.412;6.724;2024-02-04T03:19:15;12.20;;;8.07;;
9836;SDS011;4957;51.412;6.724;2024-02-04T03:21:40;10.43;;;7.47;;
9836;SDS011;4957;51.412;6.724;2024-02-04T03:24:06;11.07;;;8.20;;
9836;SDS011;4957;51.412;6.724;2024-02-04T03:26:32;10.60;;;7.90;;
9836;SDS011;4957;51.412;6.724;2024-02-04T03:28:58;10.97;;;7.63;;
9836;SDS011;4957;51.412;6.724;2024-02-04T03:31:23;10.67;;;7.53;;
9836;SDS011;4957;51.412;6.724;2024-02-04T03:33:49;11.97;;;8.00;;
9836;SDS011;4957;51.412;6.724;2024-02-04T03:36:18;12.50;;;7.37;;
9836;SDS011;4957;51.412;6.724;2024-02-04T03:38:44;8.60;;;7.00;;
9836;SDS011;4957;51.412;6.724;2024-02-04T03:41:10;10.43;;;7.07;;
9836;SDS011;4957;51.412;6.724;2024-02-04T03:43:36;10.17;;;7.40;;
9836;SDS011;4957;51.412;6.724;2024-02-04T03:46:02;9.57;;;7.40;;
9836;SDS011;4957;51.412;6.724;2024-02-04T03:48:28;9.50;;;7.30;;
9836;SDS011;4957;51.412;6.724;2024-02-04T03:50:53;8.80;;;6.83;;
9836;SDS011;4957;51.412;6.724;2024-02-04T03:53:19;10.07;;;6.87;;
9836;SDS011;4957;51.412;6.724;2024-02-04T03:55:47;8.30;;;6.93;;
9836;SDS011;4957;51.412;6.724;2024-02-04T03:58:13;9.00;;;6.67;;
9836;SDS011;4957;51.412;6.724;2024-02-04T04:00:39;9.10;;;6.83;;
9836;SDS011;4957;51.412;6.724;2024-02-04T04:03:05;8.03;;;6.40;;
9836;SDS011;4957;51.412;6.724;2024-02-04T04:05:31;11.40;;;6.97;;
9836;SDS011;4957;51.412;6.724;2024-02-04T04:07:56;10.57;;;8.27;;
9836;SDS011;4957;51.412;6.724;2024-02-04T04:10:22;11.30;;;7.77;;
9836;SDS011;4957;51.412;6.724;2024-02-04T04:12:48;9.83;;;7.73;;
9836;SDS011;4957;51.412;6.724;2024-02-04T04:15:13;14.77;;;8.63;;
9836;SDS011;4957;51.412;6.724;2024-02-04T04:17:39;17.13;;;9.67;;
9836;SDS011;4957;51.412;6.724;2024-02-04T04:20:06;13.80;;;9.70;;
9836;SDS011;4957;51.412;6.724;2024-02-04T04:22:32;14.70;;;9.73;;
9836;SDS011;4957;51.412;6.724;2024-02-04T04:24:58;16.37;;;11.03;;
9836;SDS011;4957;51.412;6.724;2024-02-04T04:27:24;20.10;;;11.87;;
9836;SDS011;4957;51.412;6.724;2024-02-04T04:29:49;15.63;;;9.80;;
9836;SDS011;4957;51.412;6.724;2024-02-04T04:32:15;16.97;;;11.10;;
9836;SDS011;4957;51.412;6.724;2024-02-04T04:34:41;20.20;;;11.90;;
9836;SDS011;4957;51.412;6.724;2024-02-04T04:37:06;21.37;;;11.30;;
9836;SDS011;4957;51.412;6.724;2024-02-04T04:39:32;15.97;;;10.90;;
9836;SDS011;4957;51.412;6.724;2024-02-04T04:41:58;17.37;;;11.10;;
9836;SDS011;4957;51.412;6.724;2024-02-04T04:44:23;18.30;;;11.50;;
9836;SDS011;4957;51.412;6.724;2024-02-04T04:46:49;19.40;;;10.50;;
9836;SDS011;4957;51.412;6.724;2024-02-04T04:49:14;16.47;;;11.10;;
9836;SDS011;4957;51.412;6.724;2024-02-04T04:51:44;19.63;;;11.27;;
9836;SDS011;4957;51.412;6.724;2024-02-04T04:54:11;18.77;;;10.77;;
9836;SDS011;4957;51.412;6.724;2024-02-04T04:56:40;18.47;;;10.93;;
9836;SDS011;4957;51.412;6.724;2024-02-04T04:59:06;14.37;;;10.50;;
9836;SDS011;4957;51.412;6.724;2024-02-04T05:01:32;16.37;;;10.77;;
9836;SDS011;4957;51.412;6.724;2024-02-04T05:03:58;23.23;;;10.97;;
9836;SDS011;4957;51.412;6.724;2024-02-04T05:06:24;20.63;;;10.70;;
9836;SDS011;4957;51.412;6.724;2024-02-04T05:08:50;14.43;;;10.00;;
9836;SDS011;4957;51.412;6.724;2024-02-04T05:11:16;18.30;;;10.87;;
9836;SDS011;4957;51.412;6.724;2024-02-04T05:13:41;18.47;;;10.73;;
9836;SDS011;4957;51.412;6.724;2024-02-04T05:16:07;19.07;;;11.13;;
9836;SDS011;4957;51.412;6.724;2024-02-04T05:18:33;19.83;;;11.23;;
9836;SDS011;4957;51.412;6.724;2024-02-04T05:20:58;21.77;;;11.70;;
9836;SDS011;4957;51.412;6.724;2024-02-04T05:23:27;20.07;;;11.97;;
9836;SDS011;4957;51.412;6.724;2024-02-04T05:25:53;24.90;;;12.57;;
9836;SDS011;4957;51.412;6.724;2024-02-04T05:28:18;17.67;;;12.17;;
9836;SDS011;4957;51.412;6.724;2024-02-04T05:30:44;19.90;;;12.13;;
9836;SDS011;4957;51.412;6.724;2024-02-04T05:33:13;22.17;;;12.60;;
9836;SDS011;4957;51.412;6.724;2024-02-04T05:35:39;21.37;;;11.93;;
9836;SDS011;4957;51.412;6.724;2024-02-04T05:38:07;21.73;;;13.20;;
9836;SDS011;4957;51.412;6.724;2024-02-04T05:40:33;22.40;;;12.10;;
9836;SDS011;4957;51.412;6.724;2024-02-04T05:42:59;18.10;;;12.50;;
9836;SDS011;4957;51.412;6.724;2024-02-04T05:45:25;20.93;;;14.20;;
9836;SDS011;4957;51.412;6.724;2024-02-04T05:47:50;24.87;;;14.03;;
9836;SDS011;4957;51.412;6.724;2024-02-04T05:50:16;23.60;;;13.17;;
9836;SDS011;4957;51.412;6.724;2024-02-04T05:52:42;26.80;;;15.63;;
9836;SDS011;4957;51.412;6.724;2024-02-04T05:55:09;23.37;;;14.37;;
9836;SDS011;4957;51.412;6.724;2024-02-04T05:57:35;32.67;;;15.47;;
9836;SDS011;4957;51.412;6.724;2024-02-04T06:00:01;25.53;;;15.27;;
9836;SDS011;4957;51.412;6.724;2024-02-04T06:02:26;30.23;;;16.50;;
9836;SDS011;4957;51.412;6.724;2024-02-04T06:04:52;38.83;;;17.50;;
9836;SDS011;4957;51.412;6.724;2024-02-04T06:07:18;28.50;;;16.97;;
9836;SDS011;4957;51.412;6.724;2024-02-04T06:09:43;33.27;;;17.63;;
9836;SDS011;4957;51.412;6.724;2024-02-04T06:12:09;32.87;;;18.10;;
9836;SDS011;4957;51.412;6.724;2024-02-04T06:14:34;31.07;;;17.33;;
9836;SDS011;4957;51.412;6.724;2024-02-04T06:17:04;26.33;;;16.33;;
9836;SDS011;4957;51.412;6.724;2024-02-04T06:19:30;32.70;;;17.07;;
9836;SDS011;4957;51.412;6.724;2024-02-04T06:21:56;34.03;;;16.17;;
9836;SDS011;4957;51.412;6.724;2024-02-04T06:24:22;32.77;;;16.67;;
9836;SDS011;4957;51.412;6.724;2024-02-04T06:26:47;28.10;;;16.80;;
9836;SDS011;4957;51.412;6.724;2024-02-04T06:29:13;26.57;;;15.10;;
9836;SDS011;4957;51.412;6.724;2024-02-04T06:31:38;27.00;;;15.33;;
9836;SDS011;4957;51.412;6.724;2024-02-04T06:34:04;28.40;;;15.80;;
9836;SDS011;4957;51.412;6.724;2024-02-04T06:36:30;31.20;;;15.77;;
9836;SDS011;4957;51.412;6.724;2024-02-04T06:38:55;26.33;;;14.13;;
9836;SDS011;4957;51.412;6.724;2024-02-04T06:41:21;28.30;;;14.50;;
9836;SDS011;4957;51.412;6.724;2024-02-04T06:43:47;35.93;;;14.27;;
9836;SDS011;4957;51.412;6.724;2024-02-04T06:46:12;27.43;;;14.50;;
9836;SDS011;4957;51.412;6.724;2024-02-04T06:48:38;33.87;;;15.27;;
9836;SDS011;4957;51.412;6.724;2024-02-04T06:51:04;32.00;;;14.20;;
9836;SDS011;4957;51.412;6.724;2024-02-04T06:53:29;24.77;;;13.33;;
9836;SDS011;4957;51.412;6.724;2024-02-04T06:55:55;24.70;;;13.37;;
9836;SDS011;4957;51.412;6.724;2024-02-04T06:58:21;23.23;;;12.33;;
9836;SDS011;4957;51.412;6.724;2024-02-04T07:00:46;19.77;;;12.07;;
9836;SDS011;4957;51.412;6.724;2024-02-04T07:03:12;26.03;;;12.87;;
9836;SDS011;4957;51.412;6.724;2024-02-04T07:05:38;27.07;;;11.93;;
9836;SDS011;4957;51.412;6.724;2024-02-04T07:08:03;21.57;;;11.20;;
9836;SDS011;4957;51.412;6.724;2024-02-04T07:10:29;23.20;;;11.57;;
9836;SDS011;4957;51.412;6.724;2024-02-04T07:12:55;20.63;;;12.40;;
9836;SDS011;4957;51.412;6.724;2024-02-04T07:15:20;19.07;;;11.60;;
9836;SDS011;4957;51.412;6.724;2024-02-04T07:17:46;21.03;;;10.63;;
9836;SDS011;4957;51.412;6.724;2024-02-04T07:20:12;16.00;;;11.13;;
9836;SDS011;4957;51.412;6.724;2024-02-04T07:22:37;19.90;;;11.80;;
9836;SDS011;4957;51.412;6.724;2024-02-04T07:25:03;19.40;;;11.70;;
9836;SDS011;4957;51.412;6.724;2024-02-04T07:27:29;22.03;;;11.97;;
9836;SDS011;4957;51.412;6.724;2024-02-04T07:29:56;22.47;;;12.00;;
9836;SDS011;4957;51.412;6.724;2024-02-04T07:32:23;20.40;;;11.67;;
9836;SDS011;4957;51.412;6.724;2024-02-04T07:34:49;22.50;;;11.23;;
9836;SDS011;4957;51.412;6.724;2024-02-04T07:37:14;21.83;;;10.80;;
9836;SDS011;4957;51.412;6.724;2024-02-04T07:39:42;22.07;;;10.67;;
9836;SDS011;4957;51.412;6.724;2024-02-04T07:42:08;18.60;;;10.43;;
9836;SDS011;4957;51.412;6.724;2024-02-04T07:44:33;17.77;;;10.67;;
9836;SDS011;4957;51.412;6.724;2024-02-04T07:46:59;20.30;;;10.80;;
9836;SDS011;4957;51.412;6.724;2024-02-04T07:49:25;17.90;;;10.13;;
9836;SDS011;4957;51.412;6.724;2024-02-04T07:51:50;24.40;;;10.70;;
9836;SDS011;4957;51.412;6.724;2024-02-04T07:54:16;17.73;;;10.27;;
9836;SDS011;4957;51.412;6.724;2024-02-04T07:56:42;21.30;;;10.73;;
9836;SDS011;4957;51.412;6.724;2024-02-04T07:59:07;19.43;;;10.23;;
9836;SDS011;4957;51.412;6.724;2024-02-04T08:01:33;19.57;;;10.67;;
9836;SDS011;4957;51.412;6.724;2024-02-04T08:03:59;18.67;;;10.47;;
9836;SDS011;4957;51.412;6.724;2024-02-04T08:06:24;15.57;;;9.47;;
9836;SDS011;4957;51.412;6.724;2024-02-04T08:08:50;14.37;;;9.23;;
9836;SDS011;4957;51.412;6.724;2024-02-04T08:11:20;13.60;;;8.37;;
9836;SDS011;4957;51.412;6.724;2024-02-04T08:13:46;13.47;;;7.87;;
9836;SDS011;4957;51.412;6.724;2024-02-04T08:16:12;12.07;;;8.67;;
9836;SDS011;4957;51.412;6.724;2024-02-04T08:18:37;13.67;;;8.10;;
9836;SDS011;4957;51.412;6.724;2024-02-04T08:21:03;11.20;;;7.77;;
9836;SDS011;4957;51.412;6.724;2024-02-04T08:23:29;13.67;;;8.47;;
9836;SDS011;4957;51.412;6.724;2024-02-04T08:25:55;14.87;;;8.33;;
9836;SDS011;4957;51.412;6.724;2024-02-04T08:28:21;12.03;;;7.63;;
9836;SDS011;4957;51.412;6.724;2024-02-04T08:30:48;15.23;;;7.77;;
9836;SDS011;4957;51.412;6.724;2024-02-04T08:33:14;13.93;;;7.77;;
9836;SDS011;4957;51.412;6.724;2024-02-04T08:35:40;17.73;;;9.13;;
9836;SDS011;4957;51.412;6.724;2024-02-04T08:38:06;13.83;;;8.73;;
9836;SDS011;4957;51.412;6.724;2024-02-04T08:40:31;16.40;;;9.00;;
9836;SDS011;4957;51.412;6.724;2024-02-04T08:42:57;13.97;;;8.50;;
9836;SDS011;4957;51.412;6.724;2024-02-04T08:45:23;17.43;;;8.87;;
9836;SDS011;4957;51.412;6.724;2024-02-04T08:47:48;15.67;;;8.53;;
9836;SDS011;4957;51.412;6.724;2024-02-04T08:50:14;11.83;;;8.37;;
9836;SDS011;4957;51.412;6.724;2024-02-04T08:52:40;11.60;;;7.83;;
9836;SDS011;4957;51.412;6.724;2024-02-04T08:55:06;14.37;;;8.40;;
9836;SDS011;4957;51.412;6.724;2024-02-04T08:57:32;13.13;;;8.40;;
9836;SDS011;4957;51.412;6.724;2024-02-04T08:59:58;16.27;;;9.13;;
9836;SDS011;4957;51.412;6.724;2024-02-04T09:02:23;17.73;;;8.47;;
9836;SDS011;4957;51.412;6.724;2024-02-04T09:04:49;12.47;;;8.27;;
9836;SDS011;4957;51.412;6.724;2024-02-04T09:07:15;14.07;;;8.30;;
9836;SDS011;4957;51.412;6.724;2024-02-04T09:09:40;14.37;;;8.57;;
9836;SDS011;4957;51.412;6.724;2024-02-04T09:12:07;14.30;;;7.80;;
9836;SDS011;4957;51.412;6.724;2024-02-04T09:14:34;12.43;;;7.67;;
9836;SDS011;4957;51.412;6.724;2024-02-04T09:17:03;16.80;;;8.03;;
9836;SDS011;4957;51.412;6.724;2024-02-04T09:19:31;15.37;;;8.67;;
9836;SDS011;4957;51.412;6.724;2024-02-04T09:21:57;12.50;;;8.23;;
9836;SDS011;4957;51.412;6.724;2024-02-04T09:24:22;15.70;;;8.47;;
9836;SDS011;4957;51.412;6.724;2024-02-04T09:26:48;16.23;;;7.90;;
9836;SDS011;4957;51.412;6.724;2024-02-04T09:29:14;14.10;;;8.60;;
9836;SDS011;4957;51.412;6.724;2024-02-04T09:31:40;13.43;;;7.77;;
9836;SDS011;4957;51.412;6.724;2024-02-04T09:34:05;13.70;;;7.37;;
9836;SDS011;4957;51.412;6.724;2024-02-04T09:36:31;11.27;;;7.70;;
9836;SDS011;4957;51.412;6.724;2024-02-04T09:38:57;14.13;;;8.13;;
9836;SDS011;4957;51.412;6.724;2024-02-04T09:41:22;14.87;;;8.10;;
9836;SDS011;4957;51.412;6.724;2024-02-04T09:43:50;11.70;;;7.50;;
9836;SDS011;4957;51.412;6.724;2024-02-04T09:46:17;10.80;;;7.67;;
9836;SDS011;4957;51.412;6.724;2024-02-04T09:48:42;10.70;;;7.37;;
9836;SDS011;4957;51.412;6.724;2024-02-04T09:51:10;14.37;;;7.03;;
9836;SDS011;4957;51.412;6.724;2024-02-04T09:53:36;11.37;;;6.87;;
9836;SDS011;4957;51.412;6.724;2024-02-04T09:56:07;11.27;;;7.70;;
9836;SDS011;4957;51.412;6.724;2024-02-04T09:58:35;12.67;;;6.30;;
9836;SDS011;4957;51.412;6.724;2024-02-04T10:01:01;9.33;;;6.83;;
9836;SDS011;4957;51.412;6.724;2024-02-04T10:03:29;9.87;;;6.63;;
9836;SDS011;4957;51.412;6.724;2024-02-04T10:05:55;11.87;;;6.47;;
9836;SDS011;4957;51.412;6.724;2024-02-04T10:08:21;9.53;;;6.53;;
9836;SDS011;4957;51.412;6.724;2024-02-04T10:10:47;9.37;;;6.47;;
9836;SDS011;4957;51.412;6.724;2024-02-04T10:13:13;10.33;;;6.67;;
9836;SDS011;4957;51.412;6.724;2024-02-04T10:15:39;12.10;;;6.80;;
9836;SDS011;4957;51.412;6.724;2024-02-04T10:18:08;13.07;;;6.63;;
9836;SDS011;4957;51.412;6.724;2024-02-04T10:20:33;10.83;;;7.20;;
9836;SDS011;4957;51.412;6.724;2024-02-04T10:23:00;11.77;;;7.07;;
9836;SDS011;4957;51.412;6.724;2024-02-04T10:25:26;12.77;;;6.23;;
9836;SDS011;4957;51.412;6.724;2024-02-04T10:27:52;10.63;;;6.33;;
9836;SDS011;4957;51.412;6.724;2024-02-04T10:30:21;11.27;;;5.80;;
9836;SDS011;4957;51.412;6.724;2024-02-04T10:32:49;10.17;;;6.20;;
9836;SDS011;4957;51.412;6.724;2024-02-04T10:35:16;10.50;;;5.30;;
9836;SDS011;4957;51.412;6.724;2024-02-04T10:37:44;11.30;;;6.90;;
9836;SDS011;4957;51.412;6.724;2024-02-04T10:40:10;13.07;;;7.53;;
9836;SDS011;4957;51.412;6.724;2024-02-04T10:42:36;10.70;;;5.83;;
9836;SDS011;4957;51.412;6.724;2024-02-04T10:45:04;9.07;;;5.73;;
9836;SDS011;4957;51.412;6.724;2024-02-04T10:47:33;7.50;;;5.73;;
9836;SDS011;4957;51.412;6.724;2024-02-04T10:50:02;6.93;;;5.30;;
9836;SDS011;4957;51.412;6.724;2024-02-04T10:52:28;7.87;;;5.20;;
9836;SDS011;4957;51.412;6.724;2024-02-04T10:55:10;6.73;;;4.27;;
9836;SDS011;4957;51.412;6.724;2024-02-04T10:57:37;5.63;;;3.57;;
9836;SDS011;4957;51.412;6.724;2024-02-04T11:00:04;6.80;;;4.50;;
9836;SDS011;4957;51.412;6.724;2024-02-04T11:02:34;6.27;;;4.67;;
9836;SDS011;4957;51.412;6.724;2024-02-04T11:05:01;7.83;;;4.80;;
9836;SDS011;4957;51.412;6.724;2024-02-04T11:07:32;7.50;;;4.73;;
9836;SDS011;4957;51.412;6.724;2024-02-04T11:09:59;6.23;;;4.50;;
9836;SDS011;4957;51.412;6.724;2024-02-04T11:12:28;6.73;;;4.17;;
9836;SDS011;4957;51.412;6.724;2024-02-04T11:14:57;7.50;;;4.70;;
9836;SDS011;4957;51.412;6.724;2024-02-04T11:18:12;5.60;;;4.33;;
9836;SDS011;4957;51.412;6.724;2024-02-04T11:23:30;5.00;;;4.20;;
9836;SDS011;4957;51.412;6.724;2024-02-04T11:25:49;6.37;;;4.50;;
9836;SDS011;4957;51.412;6.724;2024-02-04T11:28:18;8.30;;;4.73;;
9836;SDS011;4957;51.412;6.724;2024-02-04T11:30:46;7.67;;;4.63;;
9836;SDS011;4957;51.412;6.724;2024-02-04T11:33:17;6.23;;;5.00;;
9836;SDS011;4957;51.412;6.724;2024-02-04T11:35:44;8.37;;;4.90;;
9836;SDS011;4957;51.412;6.724;2024-02-04T11:38:09;9.60;;;5.87;;
9836;SDS011;4957;51.412;6.724;2024-02-04T11:40:39;7.83;;;5.43;;
9836;SDS011;4957;51.412;6.724;2024-02-04T11:45:30;7.40;;;5.50;;
9836;SDS011;4957;51.412;6.724;2024-02-04T11:48:02;6.60;;;5.60;;
9836;SDS011;4957;51.412;6.724;2024-02-04T11:50:29;7.00;;;5.27;;
9836;SDS011;4957;51.412;6.724;2024-02-04T11:53:04;8.20;;;5.83;;
9836;SDS011;4957;51.412;6.724;2024-02-04T11:55:38;6.90;;;5.30;;
9836;SDS011;4957;51.412;6.724;2024-02-04T11:58:05;9.00;;;6.17;;
9836;SDS011;4957;51.412;6.724;2024-02-04T12:00:35;6.43;;;4.83;;
9836;SDS011;4957;51.412;6.724;2024-02-04T12:03:04;9.97;;;5.43;;
9836;SDS011;4957;51.412;6.724;2024-02-04T12:05:32;10.27;;;6.00;;
9836;SDS011;4957;51.412;6.724;2024-02-04T12:08:01;10.17;;;5.80;;
9836;SDS011;4957;51.412;6.724;2024-02-04T12:10:29;7.50;;;4.83;;
9836;SDS011;4957;51.412;6.724;2024-02-04T12:12:57;9.20;;;5.40;;
9836;SDS011;4957;51.412;6.724;2024-02-04T12:15:24;8.57;;;5.37;;
9836;SDS011;4957;51.412;6.724;2024-02-04T12:17:50;7.20;;;5.07;;
9836;SDS011;4957;51.412;6.724;2024-02-04T12:20:16;9.40;;;5.00;;
9836;SDS011;4957;51.412;6.724;2024-02-04T12:22:42;6.83;;;5.20;;
9836;SDS011;4957;51.412;6.724;2024-02-04T12:25:07;14.53;;;5.60;;
9836;SDS011;4957;51.412;6.724;2024-02-04T12:27:34;7.43;;;5.30;;
9836;SDS011;4957;51.412;6.724;2024-02-04T12:30:00;8.80;;;5.50;;
9836;SDS011;4957;51.412;6.724;2024-02-04T12:32:26;11.37;;;5.50;;
9836;SDS011;4957;51.412;6.724;2024-02-04T12:34:51;9.93;;;5.10;;
9836;SDS011;4957;51.412;6.724;2024-02-04T12:37:19;6.97;;;4.80;;
9836;SDS011;4957;51.412;6.724;2024-02-04T12:39:45;9.63;;;5.47;;
9836;SDS011;4957;51.412;6.724;2024-02-04T12:42:20;10.03;;;5.77;;
9836;SDS011;4957;51.412;6.724;2024-02-04T12:44:49;8.83;;;5.00;;
9836;SDS011;4957;51.412;6.724;2024-02-04T12:47:19;8.63;;;5.20;;
9836;SDS011;4957;51.412;6.724;2024-02-04T12:49:45;7.60;;;5.33;;
9836;SDS011;4957;51.412;6.724;2024-02-04T12:52:11;6.70;;;4.83;;
9836;SDS011;4957;51.412;6.724;2024-02-04T12:54:40;6.80;;;4.97;;
9836;SDS011;4957;51.412;6.724;2024-02-04T12:57:07;7.00;;;4.80;;
9836;SDS011;4957;51.412;6.724;2024-02-04T12:59:36;8.20;;;5.40;;
9836;SDS011;4957;51.412;6.724;2024-02-04T13:02:02;7.23;;;4.80;;
9836;SDS011;4957;51.412;6.724;2024-02-04T13:04:35;8.17;;;4.80;;
9836;SDS011;4957;51.412;6.724;2024-02-04T13:07:12;7.37;;;5.03;;
9836;SDS011;4957;51.412;6.724;2024-02-04T13:09:45;6.50;;;4.50;;
9836;SDS011;4957;51.412;6.724;2024-02-04T13:12:11;8.03;;;4.77;;
9836;SDS011;4957;51.412;6.724;2024-02-04T13:14:39;8.80;;;5.33;;
9836;SDS011;4957;51.412;6.724;2024-02-04T13:17:07;6.07;;;4.63;;
9836;SDS011;4957;51.412;6.724;2024-02-04T13:19:36;6.43;;;4.33;;
9836;SDS011;4957;51.412;6.724;2024-02-04T13:22:07;12.70;;;5.07;;
9836;SDS011;4957;51.412;6.724;2024-02-04T13:24:36;8.47;;;4.77;;
9836;SDS011;4957;51.412;6.724;2024-02-04T13:27:02;6.53;;;4.37;;
9836;SDS011;4957;51.412;6.724;2024-02-04T13:29:29;9.33;;;4.20;;
9836;SDS011;4957;51.412;6.724;2024-02-04T13:31:55;5.33;;;4.30;;
9836;SDS011;4957;51.412;6.724;2024-02-04T13:34:21;10.13;;;4.90;;
9836;SDS011;4957;51.412;6.724;2024-02-04T13:36:47;7.20;;;4.33;;
9836;SDS011;4957;51.412;6.724;2024-02-04T13:39:13;7.60;;;4.57;;
9836;SDS011;4957;51.412;6.724;2024-02-04T13:41:41;9.37;;;4.80;;
9836;SDS011;4957;51.412;6.724;2024-02-04T13:44:07;6.13;;;4.50;;
9836;SDS011;4957;51.412;6.724;2024-02-04T13:46:33;8.43;;;5.03;;
9836;SDS011;4957;51.412;6.724;2024-02-04T13:48:59;5.03;;;4.50;;
9836;SDS011;4957;51.412;6.724;2024-02-04T13:51:24;7.20;;;5.20;;
9836;SDS011;4957;51.412;6.724;2024-02-04T13:53:53;6.20;;;5.00;;
9836;SDS011;4957;51.412;6.724;2024-02-04T13:56:18;8.23;;;4.50;;
9836;SDS011;4957;51.412;6.724;2024-02-04T13:58:45;6.33;;;5.23;;
9836;SDS011;4957;51.412;6.724;2024-02-04T14:01:11;7.57;;;4.93;;
9836;SDS011;4957;51.412;6.724;2024-02-04T14:03:38;7.03;;;4.73;;
9836;SDS011;4957;51.412;6.724;2024-02-04T14:06:04;6.90;;;5.07;;
9836;SDS011;4957;51.412;6.724;2024-02-04T14:08:30;5.93;;;5.00;;
9836;SDS011;4957;51.412;6.724;2024-02-04T14:10:55;7.73;;;5.67;;
9836;SDS011;4957;51.412;6.724;2024-02-04T14:13:21;6.47;;;5.07;;
9836;SDS011;4957;51.412;6.724;2024-02-04T14:15:47;8.87;;;5.60;;
9836;SDS011;4957;51.412;6.724;2024-02-04T14:18:13;7.27;;;5.50;;
9836;SDS011;4957;51.412;6.724;2024-02-04T14:20:39;6.97;;;5.57;;
9836;SDS011;4957;51.412;6.724;2024-02-04T14:23:04;10.27;;;5.60;;
9836;SDS011;4957;51.412;6.724;2024-02-04T14:25:30;6.17;;;5.50;;
9836;SDS011;4957;51.412;6.724;2024-02-04T14:27:56;9.87;;;6.20;;
9836;SDS011;4957;51.412;6.724;2024-02-04T14:30:21;10.30;;;5.93;;
9836;SDS011;4957;51.412;6.724;2024-02-04T14:32:47;10.90;;;6.00;;
9836;SDS011;4957;51.412;6.724;2024-02-04T14:35:13;9.97;;;6.17;;
9836;SDS011;4957;51.412;6.724;2024-02-04T14:37:39;10.27;;;6.03;;
9836;SDS011;4957;51.412;6.724;2024-02-04T14:40:05;13.13;;;6.10;;
9836;SDS011;4957;51.412;6.724;2024-02-04T14:42:32;6.67;;;5.40;;
9836;SDS011;4957;51.412;6.724;2024-02-04T14:44:58;13.63;;;5.73;;
9836;SDS011;4957;51.412;6.724;2024-02-04T14:47:25;9.47;;;5.47;;
9836;SDS011;4957;51.412;6.724;2024-02-04T14:49:52;8.93;;;6.07;;
9836;SDS011;4957;51.412;6.724;2024-02-04T14:52:18;8.77;;;5.83;;
9836;SDS011;4957;51.412;6.724;2024-02-04T14:54:45;8.90;;;5.50;;
9836;SDS011;4957;51.412;6.724;2024-02-04T14:57:11;9.10;;;6.03;;
9836;SDS011;4957;51.412;6.724;2024-02-04T14:59:37;12.00;;;5.77;;
9836;SDS011;4957;51.412;6.724;2024-02-04T15:02:04;8.87;;;5.43;;
9836;SDS011;4957;51.412;6.724;2024-02-04T15:04:33;10.97;;;6.20;;
9836;SDS011;4957;51.412;6.724;2024-02-04T15:06:59;7.70;;;5.27;;
9836;SDS011;4957;51.412;6.724;2024-02-04T15:09:28;7.20;;;5.80;;
9836;SDS011;4957;51.412;6.724;2024-02-04T15:11:57;10.13;;;5.30;;